sensor_id;sensor_type;location;lat;lon;timestamp;temperature;humidity
54954;DHT22;40855;51.072;5.402;2023-03-01T00:01:53;1.90;99.80
54954;DHT22;40855;51.072;5.402;2023-03-01T00:04:18;1.90;99.60
54954;DHT22;40855;51.072;5.402;2023-03-01T00:06:44;1.90;99.50
54954;DHT22;40855;51.072;5.402;2023-03-01T00:09:12;1.90;99.40
54954;DHT22;40855;51.072;5.402;2023-03-01T00:11:38;1.90;99.40
54954;DHT22;40855;51.072;5.402;2023-03-01T00:14:04;1.90;99.50
54954;DHT22;40855;51.072;5.402;2023-03-01T00:16:39;1.80;99.40
54954;DHT22;40855;51.072;5.402;2023-03-01T00:19:09;1.80;99.50
54954;DHT22;40855;51.072;5.402;2023-03-01T00:21:36;1.80;99.60
54954;DHT22;40855;51.072;5.402;2023-03-01T00:24:02;1.80;99.50
54954;DHT22;40855;51.072;5.402;2023-03-01T00:26:29;1.80;99.50
54954;DHT22;40855;51.072;5.402;2023-03-01T00:28:56;1.80;99.60
54954;DHT22;40855;51.072;5.402;2023-03-01T00:31:24;1.80;99.50
54954;DHT22;40855;51.072;5.402;2023-03-01T00:33:53;1.80;99.50
54954;DHT22;40855;51.072;5.402;2023-03-01T00:36:24;1.80;99.60
54954;DHT22;40855;51.072;5.402;2023-03-01T00:38:50;1.70;99.70
54954;DHT22;40855;51.072;5.402;2023-03-01T00:41:17;1.70;99.60
54954;DHT22;40855;51.072;5.402;2023-03-01T00:43:44;1.70;99.60
54954;DHT22;40855;51.072;5.402;2023-03-01T00:46:12;1.70;99.70
54954;DHT22;40855;51.072;5.402;2023-03-01T00:48:39;1.60;99.60
54954;DHT22;40855;51.072;5.402;2023-03-01T00:51:09;1.60;99.70
54954;DHT22;40855;51.072;5.402;2023-03-01T00:53:35;1.60;99.80
54954;DHT22;40855;51.072;5.402;2023-03-01T00:56:01;1.60;99.80
54954;DHT22;40855;51.072;5.402;2023-03-01T00:58:27;1.50;99.80
54954;DHT22;40855;51.072;5.402;2023-03-01T01:00:53;1.50;99.90
54954;DHT22;40855;51.072;5.402;2023-03-01T01:03:19;1.50;99.90
54954;DHT22;40855;51.072;5.402;2023-03-01T01:05:45;1.50;99.90
54954;DHT22;40855;51.072;5.402;2023-03-01T01:08:11;1.50;99.90
54954;DHT22;40855;51.072;5.402;2023-03-01T01:10:36;1.40;99.90
54954;DHT22;40855;51.072;5.402;2023-03-01T01:13:02;1.40;99.90
54954;DHT22;40855;51.072;5.402;2023-03-01T01:15:28;1.40;99.90
54954;DHT22;40855;51.072;5.402;2023-03-01T01:17:54;1.40;99.90
54954;DHT22;40855;51.072;5.402;2023-03-01T01:20:20;1.40;99.90
54954;DHT22;40855;51.072;5.402;2023-03-01T01:22:46;1.30;99.90
54954;DHT22;40855;51.072;5.402;2023-03-01T01:25:11;1.30;99.90
54954;DHT22;40855;51.072;5.402;2023-03-01T01:27:37;1.30;99.90
54954;DHT22;40855;51.072;5.402;2023-03-01T01:30:04;1.30;99.90
54954;DHT22;40855;51.072;5.402;2023-03-01T01:32:30;1.20;99.90
54954;DHT22;40855;51.072;5.402;2023-03-01T01:34:55;1.20;99.90
54954;DHT22;40855;51.072;5.402;2023-03-01T01:37:21;1.20;99.90
54954;DHT22;40855;51.072;5.402;2023-03-01T01:39:47;1.10;99.90
54954;DHT22;40855;51.072;5.402;2023-03-01T01:42:17;1.10;99.90
54954;DHT22;40855;51.072;5.402;2023-03-01T01:44:46;1.10;99.90
54954;DHT22;40855;51.072;5.402;2023-03-01T01:47:16;1.00;99.90
54954;DHT22;40855;51.072;5.402;2023-03-01T01:49:51;1.00;99.90
54954;DHT22;40855;51.072;5.402;2023-03-01T01:52:23;1.00;99.90
54954;DHT22;40855;51.072;5.402;2023-03-01T02:00:19;1.00;99.90
54954;DHT22;40855;51.072;5.402;2023-03-01T02:02:47;1.00;99.90
54954;DHT22;40855;51.072;5.402;2023-03-01T02:05:38;0.90;99.90
54954;DHT22;40855;51.072;5.402;2023-03-01T02:08:05;0.90;99.90
54954;DHT22;40855;51.072;5.402;2023-03-01T02:10:33;0.90;99.90
54954;DHT22;40855;51.072;5.402;2023-03-01T02:13:00;0.80;99.90
54954;DHT22;40855;51.072;5.402;2023-03-01T02:15:26;0.80;99.90
54954;DHT22;40855;51.072;5.402;2023-03-01T02:17:54;0.80;99.90
54954;DHT22;40855;51.072;5.402;2023-03-01T02:20:27;0.80;99.90
54954;DHT22;40855;51.072;5.402;2023-03-01T02:22:58;0.80;99.90
54954;DHT22;40855;51.072;5.402;2023-03-01T02:30:27;0.70;99.90
54954;DHT22;40855;51.072;5.402;2023-03-01T02:32:56;0.80;99.90
54954;DHT22;40855;51.072;5.402;2023-03-01T02:35:30;0.70;99.90
54954;DHT22;40855;51.072;5.402;2023-03-01T02:37:57;0.70;99.90
54954;DHT22;40855;51.072;5.402;2023-03-01T02:40:30;0.70;99.90
54954;DHT22;40855;51.072;5.402;2023-03-01T02:42:58;0.70;99.90
54954;DHT22;40855;51.072;5.402;2023-03-01T02:45:25;0.70;99.90
54954;DHT22;40855;51.072;5.402;2023-03-01T02:47:57;0.70;99.90
54954;DHT22;40855;51.072;5.402;2023-03-01T02:53:13;0.70;99.90
54954;DHT22;40855;51.072;5.402;2023-03-01T02:55:42;0.70;99.90
54954;DHT22;40855;51.072;5.402;2023-03-01T02:58:08;0.70;99.90
54954;DHT22;40855;51.072;5.402;2023-03-01T03:00:38;0.60;99.90
54954;DHT22;40855;51.072;5.402;2023-03-01T03:03:13;0.60;99.90
54954;DHT22;40855;51.072;5.402;2023-03-01T03:05:39;0.60;99.90
54954;DHT22;40855;51.072;5.402;2023-03-01T03:08:05;0.60;99.90
54954;DHT22;40855;51.072;5.402;2023-03-01T03:10:38;0.60;99.90
54954;DHT22;40855;51.072;5.402;2023-03-01T03:13:12;0.50;99.90
54954;DHT22;40855;51.072;5.402;2023-03-01T03:15:40;0.50;99.90
54954;DHT22;40855;51.072;5.402;2023-03-01T03:18:09;0.50;99.90
54954;DHT22;40855;51.072;5.402;2023-03-01T03:20:36;0.50;99.90
54954;DHT22;40855;51.072;5.402;2023-03-01T03:23:03;0.50;99.90
54954;DHT22;40855;51.072;5.402;2023-03-01T03:25:29;0.50;99.90
54954;DHT22;40855;51.072;5.402;2023-03-01T03:27:56;0.50;99.90
54954;DHT22;40855;51.072;5.402;2023-03-01T03:30:24;0.50;99.90
54954;DHT22;40855;51.072;5.402;2023-03-01T03:32:50;0.40;99.90
54954;DHT22;40855;51.072;5.402;2023-03-01T03:35:30;0.40;99.90
54954;DHT22;40855;51.072;5.402;2023-03-01T03:37:57;0.40;99.90
54954;DHT22;40855;51.072;5.402;2023-03-01T03:40:51;0.40;99.90
54954;DHT22;40855;51.072;5.402;2023-03-01T03:43:22;0.30;99.90
54954;DHT22;40855;51.072;5.402;2023-03-01T03:45:49;0.30;99.90
54954;DHT22;40855;51.072;5.402;2023-03-01T03:48:16;0.30;99.90
54954;DHT22;40855;51.072;5.402;2023-03-01T03:50:48;0.30;99.90
54954;DHT22;40855;51.072;5.402;2023-03-01T03:53:14;0.30;99.90
54954;DHT22;40855;51.072;5.402;2023-03-01T03:55:39;0.20;99.90
54954;DHT22;40855;51.072;5.402;2023-03-01T03:58:07;0.20;99.90
54954;DHT22;40855;51.072;5.402;2023-03-01T04:00:44;0.20;99.90
54954;DHT22;40855;51.072;5.402;2023-03-01T04:03:11;0.20;99.90
54954;DHT22;40855;51.072;5.402;2023-03-01T04:05:39;0.20;99.90
54954;DHT22;40855;51.072;5.402;2023-03-01T04:08:05;0.10;99.90
54954;DHT22;40855;51.072;5.402;2023-03-01T04:10:42;0.10;99.90
54954;DHT22;40855;51.072;5.402;2023-03-01T04:13:13;0.10;99.90
54954;DHT22;40855;51.072;5.402;2023-03-01T04:15:40;0.10;99.90
54954;DHT22;40855;51.072;5.402;2023-03-01T04:18:06;0.10;99.90
54954;DHT22;40855;51.072;5.402;2023-03-01T04:20:34;0.00;99.90
54954;DHT22;40855;51.072;5.402;2023-03-01T04:23:14;0.00;99.90
54954;DHT22;40855;51.072;5.402;2023-03-01T04:25:53;0.00;99.90
54954;DHT22;40855;51.072;5.402;2023-03-01T04:28:21;0.00;99.90
54954;DHT22;40855;51.072;5.402;2023-03-01T04:30:47;0.00;99.90
54954;DHT22;40855;51.072;5.402;2023-03-01T04:33:13;-0.10;99.90
54954;DHT22;40855;51.072;5.402;2023-03-01T04:35:39;-0.10;99.90
54954;DHT22;40855;51.072;5.402;2023-03-01T04:38:06;-0.10;99.90
54954;DHT22;40855;51.072;5.402;2023-03-01T04:40:32;-0.10;99.90
54954;DHT22;40855;51.072;5.402;2023-03-01T04:42:58;-0.10;99.90
54954;DHT22;40855;51.072;5.402;2023-03-01T04:45:24;-0.10;99.90
54954;DHT22;40855;51.072;5.402;2023-03-01T04:47:49;-0.10;99.90
54954;DHT22;40855;51.072;5.402;2023-03-01T04:50:18;-0.20;99.90
54954;DHT22;40855;51.072;5.402;2023-03-01T04:52:49;-0.20;99.90
54954;DHT22;40855;51.072;5.402;2023-03-01T04:55:15;-0.20;99.90
54954;DHT22;40855;51.072;5.402;2023-03-01T04:57:41;-0.20;99.90
54954;DHT22;40855;51.072;5.402;2023-03-01T05:00:10;-0.20;99.90
54954;DHT22;40855;51.072;5.402;2023-03-01T05:03:00;-0.30;99.90
54954;DHT22;40855;51.072;5.402;2023-03-01T05:05:37;-0.30;99.90
54954;DHT22;40855;51.072;5.402;2023-03-01T05:08:07;-0.40;99.90
54954;DHT22;40855;51.072;5.402;2023-03-01T05:10:35;-0.40;99.90
54954;DHT22;40855;51.072;5.402;2023-03-01T05:13:01;-0.40;99.90
54954;DHT22;40855;51.072;5.402;2023-03-01T05:15:29;-0.50;99.90
54954;DHT22;40855;51.072;5.402;2023-03-01T05:17:57;-0.40;99.90
54954;DHT22;40855;51.072;5.402;2023-03-01T05:20:28;-0.50;99.90
54954;DHT22;40855;51.072;5.402;2023-03-01T05:22:59;-0.50;99.90
54954;DHT22;40855;51.072;5.402;2023-03-01T05:25:25;-0.50;99.90
54954;DHT22;40855;51.072;5.402;2023-03-01T05:27:51;-0.50;99.90
54954;DHT22;40855;51.072;5.402;2023-03-01T05:30:17;-0.50;99.90
54954;DHT22;40855;51.072;5.402;2023-03-01T05:32:49;-0.50;99.90
54954;DHT22;40855;51.072;5.402;2023-03-01T05:35:17;-0.50;99.90
54954;DHT22;40855;51.072;5.402;2023-03-01T05:37:44;-0.50;99.90
54954;DHT22;40855;51.072;5.402;2023-03-01T05:40:12;-0.60;99.90
54954;DHT22;40855;51.072;5.402;2023-03-01T05:42:55;-0.60;99.90
54954;DHT22;40855;51.072;5.402;2023-03-01T05:45:22;-0.60;99.90
54954;DHT22;40855;51.072;5.402;2023-03-01T05:47:49;-0.60;99.90
54954;DHT22;40855;51.072;5.402;2023-03-01T05:50:22;-0.60;99.90
54954;DHT22;40855;51.072;5.402;2023-03-01T05:52:51;-0.70;99.90
54954;DHT22;40855;51.072;5.402;2023-03-01T05:55:19;-0.70;99.90
54954;DHT22;40855;51.072;5.402;2023-03-01T05:57:45;-0.70;99.90
54954;DHT22;40855;51.072;5.402;2023-03-01T06:00:12;-0.70;99.90
54954;DHT22;40855;51.072;5.402;2023-03-01T06:02:38;-0.70;99.90
54954;DHT22;40855;51.072;5.402;2023-03-01T06:05:06;-0.80;99.90
54954;DHT22;40855;51.072;5.402;2023-03-01T06:07:33;-0.80;99.90
54954;DHT22;40855;51.072;5.402;2023-03-01T06:09:58;-0.80;99.90
54954;DHT22;40855;51.072;5.402;2023-03-01T06:12:24;-0.90;99.90
54954;DHT22;40855;51.072;5.402;2023-03-01T06:14:49;-0.90;99.90
54954;DHT22;40855;51.072;5.402;2023-03-01T06:17:15;-0.90;99.90
54954;DHT22;40855;51.072;5.402;2023-03-01T06:19:41;-0.90;99.90
54954;DHT22;40855;51.072;5.402;2023-03-01T06:22:07;-1.00;99.90
54954;DHT22;40855;51.072;5.402;2023-03-01T06:24:33;-1.00;99.90
54954;DHT22;40855;51.072;5.402;2023-03-01T06:26:59;-1.00;99.90
54954;DHT22;40855;51.072;5.402;2023-03-01T06:29:25;-1.00;99.90
54954;DHT22;40855;51.072;5.402;2023-03-01T06:31:50;-1.00;99.90
54954;DHT22;40855;51.072;5.402;2023-03-01T06:34:16;-1.00;99.90
54954;DHT22;40855;51.072;5.402;2023-03-01T06:36:42;-1.10;99.90
54954;DHT22;40855;51.072;5.402;2023-03-01T06:39:07;-1.10;99.90
54954;DHT22;40855;51.072;5.402;2023-03-01T06:41:33;-1.10;99.90
54954;DHT22;40855;51.072;5.402;2023-03-01T06:43:59;-1.10;99.90
54954;DHT22;40855;51.072;5.402;2023-03-01T06:46:25;-1.10;99.90
54954;DHT22;40855;51.072;5.402;2023-03-01T06:48:51;-1.10;99.90
54954;DHT22;40855;51.072;5.402;2023-03-01T06:51:17;-1.10;99.90
54954;DHT22;40855;51.072;5.402;2023-03-01T06:53:42;-1.20;99.90
54954;DHT22;40855;51.072;5.402;2023-03-01T06:56:08;-1.10;99.90
54954;DHT22;40855;51.072;5.402;2023-03-01T06:58:34;-1.10;99.90
54954;DHT22;40855;51.072;5.402;2023-03-01T07:00:59;-1.10;99.90
54954;DHT22;40855;51.072;5.402;2023-03-01T07:03:25;-1.10;99.90
54954;DHT22;40855;51.072;5.402;2023-03-01T07:05:51;-1.10;99.90
54954;DHT22;40855;51.072;5.402;2023-03-01T07:08:18;-1.10;99.90
54954;DHT22;40855;51.072;5.402;2023-03-01T07:10:44;-1.10;99.90
54954;DHT22;40855;51.072;5.402;2023-03-01T07:13:10;-1.10;99.90
54954;DHT22;40855;51.072;5.402;2023-03-01T07:15:36;-1.00;99.90
54954;DHT22;40855;51.072;5.402;2023-03-01T07:18:01;-1.10;99.90
54954;DHT22;40855;51.072;5.402;2023-03-01T07:20:28;-1.00;99.90
54954;DHT22;40855;51.072;5.402;2023-03-01T07:22:54;-1.00;99.90
54954;DHT22;40855;51.072;5.402;2023-03-01T07:25:21;-1.00;99.90
54954;DHT22;40855;51.072;5.402;2023-03-01T07:27:53;-1.00;99.90
54954;DHT22;40855;51.072;5.402;2023-03-01T07:30:20;-1.00;99.90
54954;DHT22;40855;51.072;5.402;2023-03-01T07:32:46;-1.00;99.90
54954;DHT22;40855;51.072;5.402;2023-03-01T07:35:12;-1.10;99.90
54954;DHT22;40855;51.072;5.402;2023-03-01T07:37:38;-1.00;99.90
54954;DHT22;40855;51.072;5.402;2023-03-01T07:40:04;-1.00;99.90
54954;DHT22;40855;51.072;5.402;2023-03-01T07:42:29;-1.00;99.90
54954;DHT22;40855;51.072;5.402;2023-03-01T07:44:55;-1.00;99.90
54954;DHT22;40855;51.072;5.402;2023-03-01T07:47:21;-0.90;99.90
54954;DHT22;40855;51.072;5.402;2023-03-01T07:49:46;-1.00;99.90
54954;DHT22;40855;51.072;5.402;2023-03-01T07:52:12;-0.90;99.90
54954;DHT22;40855;51.072;5.402;2023-03-01T07:54:38;-0.90;99.90
54954;DHT22;40855;51.072;5.402;2023-03-01T07:57:04;-0.80;99.90
54954;DHT22;40855;51.072;5.402;2023-03-01T07:59:30;-0.80;99.90
54954;DHT22;40855;51.072;5.402;2023-03-01T08:01:56;-0.80;99.90
54954;DHT22;40855;51.072;5.402;2023-03-01T08:04:22;-0.70;99.90
54954;DHT22;40855;51.072;5.402;2023-03-01T08:06:50;-0.70;99.90
54954;DHT22;40855;51.072;5.402;2023-03-01T08:09:16;-0.60;99.90
54954;DHT22;40855;51.072;5.402;2023-03-01T08:11:42;-0.60;99.90
54954;DHT22;40855;51.072;5.402;2023-03-01T08:14:08;-0.50;99.90
54954;DHT22;40855;51.072;5.402;2023-03-01T08:16:34;-0.50;99.90
54954;DHT22;40855;51.072;5.402;2023-03-01T08:19:11;-0.40;99.90
54954;DHT22;40855;51.072;5.402;2023-03-01T08:21:38;-0.30;99.90
54954;DHT22;40855;51.072;5.402;2023-03-01T08:24:04;-0.30;99.90
54954;DHT22;40855;51.072;5.402;2023-03-01T08:26:31;-0.30;99.90
54954;DHT22;40855;51.072;5.402;2023-03-01T08:28:57;-0.20;99.90
54954;DHT22;40855;51.072;5.402;2023-03-01T08:31:29;-0.20;99.90
54954;DHT22;40855;51.072;5.402;2023-03-01T08:33:59;-0.10;99.90
54954;DHT22;40855;51.072;5.402;2023-03-01T08:36:31;0.00;99.90
54954;DHT22;40855;51.072;5.402;2023-03-01T08:38:57;0.00;99.90
54954;DHT22;40855;51.072;5.402;2023-03-01T08:41:23;0.10;99.90
54954;DHT22;40855;51.072;5.402;2023-03-01T08:43:49;0.20;99.90
54954;DHT22;40855;51.072;5.402;2023-03-01T08:46:15;0.30;99.90
54954;DHT22;40855;51.072;5.402;2023-03-01T08:48:41;0.30;99.90
54954;DHT22;40855;51.072;5.402;2023-03-01T08:51:17;0.40;99.90
54954;DHT22;40855;51.072;5.402;2023-03-01T08:53:44;0.50;99.90
54954;DHT22;40855;51.072;5.402;2023-03-01T08:56:10;0.60;99.90
54954;DHT22;40855;51.072;5.402;2023-03-01T08:58:37;0.60;99.90
54954;DHT22;40855;51.072;5.402;2023-03-01T09:01:17;0.70;99.90
54954;DHT22;40855;51.072;5.402;2023-03-01T09:03:43;0.80;99.90
54954;DHT22;40855;51.072;5.402;2023-03-01T09:06:10;0.80;99.90
54954;DHT22;40855;51.072;5.402;2023-03-01T09:08:38;0.90;99.90
54954;DHT22;40855;51.072;5.402;2023-03-01T09:11:06;1.00;99.90
54954;DHT22;40855;51.072;5.402;2023-03-01T09:13:32;1.10;99.90
54954;DHT22;40855;51.072;5.402;2023-03-01T09:16:00;1.20;99.90
54954;DHT22;40855;51.072;5.402;2023-03-01T09:18:26;1.20;99.90
54954;DHT22;40855;51.072;5.402;2023-03-01T09:20:52;1.30;99.90
54954;DHT22;40855;51.072;5.402;2023-03-01T09:23:21;1.40;99.90
54954;DHT22;40855;51.072;5.402;2023-03-01T09:25:47;1.50;99.90
54954;DHT22;40855;51.072;5.402;2023-03-01T09:28:13;1.50;99.90
54954;DHT22;40855;51.072;5.402;2023-03-01T09:30:38;1.60;99.90
54954;DHT22;40855;51.072;5.402;2023-03-01T09:33:04;1.70;99.90
54954;DHT22;40855;51.072;5.402;2023-03-01T09:35:30;1.80;99.90
54954;DHT22;40855;51.072;5.402;2023-03-01T09:37:55;1.80;99.90
54954;DHT22;40855;51.072;5.402;2023-03-01T09:40:24;1.90;99.90
54954;DHT22;40855;51.072;5.402;2023-03-01T09:45:53;2.00;99.90
54954;DHT22;40855;51.072;5.402;2023-03-01T09:48:22;2.20;99.90
54954;DHT22;40855;51.072;5.402;2023-03-01T09:50:49;2.20;99.90
54954;DHT22;40855;51.072;5.402;2023-03-01T09:53:20;2.30;99.90
54954;DHT22;40855;51.072;5.402;2023-03-01T09:55:52;2.40;99.90
54954;DHT22;40855;51.072;5.402;2023-03-01T09:58:47;2.50;99.90
54954;DHT22;40855;51.072;5.402;2023-03-01T10:01:33;2.50;99.90
54954;DHT22;40855;51.072;5.402;2023-03-01T10:06:54;2.60;99.90
54954;DHT22;40855;51.072;5.402;2023-03-01T10:09:22;2.70;99.90
54954;DHT22;40855;51.072;5.402;2023-03-01T10:11:54;2.80;99.90
54954;DHT22;40855;51.072;5.402;2023-03-01T10:20:18;3.10;99.90
54954;DHT22;40855;51.072;5.402;2023-03-01T10:22:44;3.20;99.90
54954;DHT22;40855;51.072;5.402;2023-03-01T10:25:36;3.20;99.90
54954;DHT22;40855;51.072;5.402;2023-03-01T10:28:26;3.20;99.90
54954;DHT22;40855;51.072;5.402;2023-03-01T10:30:54;3.30;99.90
54954;DHT22;40855;51.072;5.402;2023-03-01T10:33:23;3.30;99.90
54954;DHT22;40855;51.072;5.402;2023-03-01T10:35:50;3.30;99.90
54954;DHT22;40855;51.072;5.402;2023-03-01T10:38:17;3.40;99.90
54954;DHT22;40855;51.072;5.402;2023-03-01T10:40:56;3.40;99.90
54954;DHT22;40855;51.072;5.402;2023-03-01T10:43:24;3.50;99.90
54954;DHT22;40855;51.072;5.402;2023-03-01T10:45:50;3.50;99.90
54954;DHT22;40855;51.072;5.402;2023-03-01T10:48:35;3.50;99.90
54954;DHT22;40855;51.072;5.402;2023-03-01T10:53:29;3.70;99.90
54954;DHT22;40855;51.072;5.402;2023-03-01T10:56:09;3.70;99.80
54954;DHT22;40855;51.072;5.402;2023-03-01T10:58:37;3.80;99.80
54954;DHT22;40855;51.072;5.402;2023-03-01T11:03:42;3.90;99.90
54954;DHT22;40855;51.072;5.402;2023-03-01T11:08:38;4.00;99.60
54954;DHT22;40855;51.072;5.402;2023-03-01T11:14:01;4.20;99.20
54954;DHT22;40855;51.072;5.402;2023-03-01T11:16:37;4.20;99.00
54954;DHT22;40855;51.072;5.402;2023-03-01T11:24:41;4.40;98.10
54954;DHT22;40855;51.072;5.402;2023-03-01T11:27:21;4.40;99.10
54954;DHT22;40855;51.072;5.402;2023-03-01T11:30:15;4.50;98.30
54954;DHT22;40855;51.072;5.402;2023-03-01T11:33:08;4.60;98.30
54954;DHT22;40855;51.072;5.402;2023-03-01T11:35:31;4.60;97.50
54954;DHT22;40855;51.072;5.402;2023-03-01T11:43:30;4.80;97.30
54954;DHT22;40855;51.072;5.402;2023-03-01T12:03:28;5.10;96.90
54954;DHT22;40855;51.072;5.402;2023-03-01T12:09:01;5.10;96.90
54954;DHT22;40855;51.072;5.402;2023-03-01T12:17:15;5.30;96.50
54954;DHT22;40855;51.072;5.402;2023-03-01T12:22:45;5.40;96.20
54954;DHT22;40855;51.072;5.402;2023-03-01T12:25:34;5.50;95.90
54954;DHT22;40855;51.072;5.402;2023-03-01T12:28:32;5.50;96.00
54954;DHT22;40855;51.072;5.402;2023-03-01T12:42:20;5.70;95.30
54954;DHT22;40855;51.072;5.402;2023-03-01T12:50:46;5.80;95.10
54954;DHT22;40855;51.072;5.402;2023-03-01T12:53:26;5.90;94.40
54954;DHT22;40855;51.072;5.402;2023-03-01T12:56:05;5.90;94.90
54954;DHT22;40855;51.072;5.402;2023-03-01T13:01:35;6.10;95.20
54954;DHT22;40855;51.072;5.402;2023-03-01T13:12:51;6.30;93.70
54954;DHT22;40855;51.072;5.402;2023-03-01T13:20:29;6.40;93.80
54954;DHT22;40855;51.072;5.402;2023-03-01T13:23:02;6.40;94.00
54954;DHT22;40855;51.072;5.402;2023-03-01T13:25:28;6.50;93.90
54954;DHT22;40855;51.072;5.402;2023-03-01T13:30:58;6.60;92.40
54954;DHT22;40855;51.072;5.402;2023-03-01T13:35:57;6.60;92.00
54954;DHT22;40855;51.072;5.402;2023-03-01T13:38:44;6.60;92.00
54954;DHT22;40855;51.072;5.402;2023-03-01T13:41:13;6.60;92.20
54954;DHT22;40855;51.072;5.402;2023-03-01T13:43:42;6.60;92.50
54954;DHT22;40855;51.072;5.402;2023-03-01T13:46:14;6.60;92.70
54954;DHT22;40855;51.072;5.402;2023-03-01T13:48:43;6.70;93.00
54954;DHT22;40855;51.072;5.402;2023-03-01T13:51:11;6.60;92.50
54954;DHT22;40855;51.072;5.402;2023-03-01T13:53:42;6.60;92.50
54954;DHT22;40855;51.072;5.402;2023-03-01T13:56:12;6.70;92.50
54954;DHT22;40855;51.072;5.402;2023-03-01T14:01:28;6.70;92.30
54954;DHT22;40855;51.072;5.402;2023-03-01T14:03:55;6.70;92.10
54954;DHT22;40855;51.072;5.402;2023-03-01T14:06:27;6.70;92.20
54954;DHT22;40855;51.072;5.402;2023-03-01T14:09:03;6.70;92.20
54954;DHT22;40855;51.072;5.402;2023-03-01T14:11:34;6.70;91.80
54954;DHT22;40855;51.072;5.402;2023-03-01T14:19:26;6.80;91.00
54954;DHT22;40855;51.072;5.402;2023-03-01T14:24:40;6.90;91.60
54954;DHT22;40855;51.072;5.402;2023-03-01T14:27:11;6.90;91.70
54954;DHT22;40855;51.072;5.402;2023-03-01T14:29:39;6.90;91.30
54954;DHT22;40855;51.072;5.402;2023-03-01T14:32:19;6.90;90.90
54954;DHT22;40855;51.072;5.402;2023-03-01T14:34:47;6.90;90.80
54954;DHT22;40855;51.072;5.402;2023-03-01T14:37:34;7.00;91.00
54954;DHT22;40855;51.072;5.402;2023-03-01T14:40:02;6.90;91.40
54954;DHT22;40855;51.072;5.402;2023-03-01T14:42:31;7.00;91.30
54954;DHT22;40855;51.072;5.402;2023-03-01T14:45:01;7.00;91.10
54954;DHT22;40855;51.072;5.402;2023-03-01T14:47:37;7.00;91.40
54954;DHT22;40855;51.072;5.402;2023-03-01T14:52:40;7.00;90.90
54954;DHT22;40855;51.072;5.402;2023-03-01T14:55:17;7.00;90.90
54954;DHT22;40855;51.072;5.402;2023-03-01T14:57:53;7.00;90.80
54954;DHT22;40855;51.072;5.402;2023-03-01T15:00:24;7.00;90.40
54954;DHT22;40855;51.072;5.402;2023-03-01T15:02:53;7.00;89.50
54954;DHT22;40855;51.072;5.402;2023-03-01T15:05:30;7.00;89.20
54954;DHT22;40855;51.072;5.402;2023-03-01T15:08:01;7.00;89.80
54954;DHT22;40855;51.072;5.402;2023-03-01T15:10:33;7.00;89.90
54954;DHT22;40855;51.072;5.402;2023-03-01T15:13:23;7.00;89.50
54954;DHT22;40855;51.072;5.402;2023-03-01T15:15:53;7.00;90.10
54954;DHT22;40855;51.072;5.402;2023-03-01T15:18:28;6.90;89.80
54954;DHT22;40855;51.072;5.402;2023-03-01T15:20:54;7.00;89.50
54954;DHT22;40855;51.072;5.402;2023-03-01T15:23:26;6.90;88.90
54954;DHT22;40855;51.072;5.402;2023-03-01T15:25:53;6.90;89.50
54954;DHT22;40855;51.072;5.402;2023-03-01T15:28:31;6.90;89.70
54954;DHT22;40855;51.072;5.402;2023-03-01T15:33:36;6.90;89.60
54954;DHT22;40855;51.072;5.402;2023-03-01T15:36:29;6.90;90.30
54954;DHT22;40855;51.072;5.402;2023-03-01T15:38:55;6.90;90.10
54954;DHT22;40855;51.072;5.402;2023-03-01T15:41:37;6.90;88.50
54954;DHT22;40855;51.072;5.402;2023-03-01T15:44:27;6.90;87.90
54954;DHT22;40855;51.072;5.402;2023-03-01T15:46:53;6.80;87.40
54954;DHT22;40855;51.072;5.402;2023-03-01T15:49:40;6.80;88.50
54954;DHT22;40855;51.072;5.402;2023-03-01T15:52:27;6.80;88.20
54954;DHT22;40855;51.072;5.402;2023-03-01T15:55:00;6.70;87.70
54954;DHT22;40855;51.072;5.402;2023-03-01T15:57:26;6.80;88.40
54954;DHT22;40855;51.072;5.402;2023-03-01T15:59:52;6.80;88.40
54954;DHT22;40855;51.072;5.402;2023-03-01T16:02:18;6.80;88.80
54954;DHT22;40855;51.072;5.402;2023-03-01T16:04:46;6.80;88.80
54954;DHT22;40855;51.072;5.402;2023-03-01T16:07:12;6.80;88.10
54954;DHT22;40855;51.072;5.402;2023-03-01T16:30:59;6.60;89.50
54954;DHT22;40855;51.072;5.402;2023-03-01T16:33:26;6.60;90.00
54954;DHT22;40855;51.072;5.402;2023-03-01T16:35:52;6.50;90.20
54954;DHT22;40855;51.072;5.402;2023-03-01T16:38:18;6.60;90.40
54954;DHT22;40855;51.072;5.402;2023-03-01T16:40:50;6.60;90.50
54954;DHT22;40855;51.072;5.402;2023-03-01T16:43:16;6.60;90.60
54954;DHT22;40855;51.072;5.402;2023-03-01T16:45:42;6.50;90.60
54954;DHT22;40855;51.072;5.402;2023-03-01T16:48:10;6.50;90.70
54954;DHT22;40855;51.072;5.402;2023-03-01T16:50:36;6.50;90.50
54954;DHT22;40855;51.072;5.402;2023-03-01T16:53:02;6.50;90.60
54954;DHT22;40855;51.072;5.402;2023-03-01T16:55:28;6.40;90.70
54954;DHT22;40855;51.072;5.402;2023-03-01T16:57:54;6.40;90.80
54954;DHT22;40855;51.072;5.402;2023-03-01T17:00:20;6.40;90.90
54954;DHT22;40855;51.072;5.402;2023-03-01T17:02:46;6.30;90.90
54954;DHT22;40855;51.072;5.402;2023-03-01T17:05:12;6.30;90.90
54954;DHT22;40855;51.072;5.402;2023-03-01T17:07:39;6.30;91.00
54954;DHT22;40855;51.072;5.402;2023-03-01T17:10:07;6.20;91.10
54954;DHT22;40855;51.072;5.402;2023-03-01T17:12:34;6.20;91.20
54954;DHT22;40855;51.072;5.402;2023-03-01T17:15:00;6.20;91.20
54954;DHT22;40855;51.072;5.402;2023-03-01T17:17:26;6.20;91.30
54954;DHT22;40855;51.072;5.402;2023-03-01T17:19:52;6.10;91.30
54954;DHT22;40855;51.072;5.402;2023-03-01T17:22:18;6.10;91.30
54954;DHT22;40855;51.072;5.402;2023-03-01T17:24:44;6.10;91.30
54954;DHT22;40855;51.072;5.402;2023-03-01T17:27:11;6.10;91.40
54954;DHT22;40855;51.072;5.402;2023-03-01T17:29:38;6.00;91.40
54954;DHT22;40855;51.072;5.402;2023-03-01T17:32:04;5.90;91.40
54954;DHT22;40855;51.072;5.402;2023-03-01T17:34:31;5.90;91.50
54954;DHT22;40855;51.072;5.402;2023-03-01T17:36:57;5.90;91.50
54954;DHT22;40855;51.072;5.402;2023-03-01T17:39:23;5.90;91.60
54954;DHT22;40855;51.072;5.402;2023-03-01T17:41:53;5.80;91.60
54954;DHT22;40855;51.072;5.402;2023-03-01T17:44:19;5.90;91.70
54954;DHT22;40855;51.072;5.402;2023-03-01T17:46:45;5.80;91.80
54954;DHT22;40855;51.072;5.402;2023-03-01T17:49:11;5.80;91.90
54954;DHT22;40855;51.072;5.402;2023-03-01T17:51:36;5.80;91.90
54954;DHT22;40855;51.072;5.402;2023-03-01T17:54:03;5.80;91.90
54954;DHT22;40855;51.072;5.402;2023-03-01T17:56:28;5.80;91.90
54954;DHT22;40855;51.072;5.402;2023-03-01T17:58:54;5.80;91.90
54954;DHT22;40855;51.072;5.402;2023-03-01T18:01:20;5.70;91.90
54954;DHT22;40855;51.072;5.402;2023-03-01T18:03:50;5.70;92.00
54954;DHT22;40855;51.072;5.402;2023-03-01T18:06:21;5.70;92.00
54954;DHT22;40855;51.072;5.402;2023-03-01T18:08:47;5.60;92.10
54954;DHT22;40855;51.072;5.402;2023-03-01T18:11:18;5.60;92.20
54954;DHT22;40855;51.072;5.402;2023-03-01T18:13:45;5.60;92.20
54954;DHT22;40855;51.072;5.402;2023-03-01T18:16:14;5.60;92.30
54954;DHT22;40855;51.072;5.402;2023-03-01T18:18:41;5.50;92.30
54954;DHT22;40855;51.072;5.402;2023-03-01T18:21:07;5.50;92.30
54954;DHT22;40855;51.072;5.402;2023-03-01T18:23:34;5.40;92.30
54954;DHT22;40855;51.072;5.402;2023-03-01T18:26:06;5.40;92.40
54954;DHT22;40855;51.072;5.402;2023-03-01T18:28:32;5.30;92.50